sensor_id;sensor_type;location;lat;lon;timestamp;pressure;altitude;pressure_sealevel;temperature;humidity
29215;BME280;16252;49.816;7.964;2023-06-14T00:01:42;99626.69;;;21.76;32.61
29215;BME280;16252;49.816;7.964;2023-06-14T00:04:10;99623.91;;;21.70;32.68
29215;BME280;16252;49.816;7.964;2023-06-14T00:06:35;99623.50;;;21.66;32.92
29215;BME280;16252;49.816;7.964;2023-06-14T00:09:01;99602.47;;;21.53;32.81
29215;BME280;16252;49.816;7.964;2023-06-14T00:11:26;99619.03;;;21.58;32.92
29215;BME280;16252;49.816;7.964;2023-06-14T00:13:52;99612.91;;;21.50;33.02
29215;BME280;16252;49.816;7.964;2023-06-14T00:16:17;99623.81;;;21.50;33.05
29215;BME280;16252;49.816;7.964;2023-06-14T00:18:44;99613.44;;;21.38;33.54
29215;BME280;16252;49.816;7.964;2023-06-14T00:21:09;99632.09;;;21.41;33.30
29215;BME280;16252;49.816;7.964;2023-06-14T00:23:35;99600.84;;;21.16;33.53
29215;BME280;16252;49.816;7.964;2023-06-14T00:26:00;99605.06;;;21.18;33.72
29215;BME280;16252;49.816;7.964;2023-06-14T00:28:25;99623.91;;;21.20;34.07
29215;BME280;16252;49.816;7.964;2023-06-14T00:30:50;99631.34;;;21.11;34.06
29215;BME280;16252;49.816;7.964;2023-06-14T00:33:16;99627.50;;;20.99;33.77
29215;BME280;16252;49.816;7.964;2023-06-14T00:35:41;99630.31;;;20.91;34.28
29215;BME280;16252;49.816;7.964;2023-06-14T00:38:06;99619.75;;;20.81;34.39
29215;BME280;16252;49.816;7.964;2023-06-14T00:40:32;99623.69;;;20.78;34.04
29215;BME280;16252;49.816;7.964;2023-06-14T00:42:57;99604.91;;;20.62;34.36
29215;BME280;16252;49.816;7.964;2023-06-14T00:45:22;99626.94;;;20.67;34.28
29215;BME280;16252;49.816;7.964;2023-06-14T00:47:49;99618.97;;;20.66;34.40
29215;BME280;16252;49.816;7.964;2023-06-14T00:50:17;99612.16;;;20.55;34.15
29215;BME280;16252;49.816;7.964;2023-06-14T00:52:45;99630.59;;;20.60;34.34
29215;BME280;16252;49.816;7.964;2023-06-14T00:55:10;99626.09;;;20.52;34.52
29215;BME280;16252;49.816;7.964;2023-06-14T00:57:36;99618.50;;;20.47;34.43
29215;BME280;16252;49.816;7.964;2023-06-14T01:00:03;99641.88;;;20.56;34.82
29215;BME280;16252;49.816;7.964;2023-06-14T01:02:29;99625.34;;;20.43;34.99
29215;BME280;16252;49.816;7.964;2023-06-14T01:04:55;99624.63;;;20.34;34.90
29215;BME280;16252;49.816;7.964;2023-06-14T01:10:26;99647.34;;;20.48;34.58
29215;BME280;16252;49.816;7.964;2023-06-14T01:15:30;99647.75;;;20.30;35.39
29215;BME280;16252;49.816;7.964;2023-06-14T01:17:56;99651.34;;;20.16;35.20
29215;BME280;16252;49.816;7.964;2023-06-14T01:20:31;99652.06;;;20.10;35.45
29215;BME280;16252;49.816;7.964;2023-06-14T01:22:57;99649.06;;;20.05;35.26
29215;BME280;16252;49.816;7.964;2023-06-14T01:25:23;99651.72;;;19.98;35.59
29215;BME280;16252;49.816;7.964;2023-06-14T01:27:49;99658.66;;;20.01;35.68
29215;BME280;16252;49.816;7.964;2023-06-14T01:30:16;99644.00;;;19.87;35.77
29215;BME280;16252;49.816;7.964;2023-06-14T01:32:42;99658.25;;;19.89;35.74
29215;BME280;16252;49.816;7.964;2023-06-14T01:35:07;99653.75;;;19.81;35.81
29215;BME280;16252;49.816;7.964;2023-06-14T01:37:33;99639.22;;;19.74;35.97
29215;BME280;16252;49.816;7.964;2023-06-14T01:39:59;99660.22;;;19.80;36.01
29215;BME280;16252;49.816;7.964;2023-06-14T01:42:24;99655.72;;;19.73;36.03
29215;BME280;16252;49.816;7.964;2023-06-14T01:44:52;99646.09;;;19.62;36.42
29215;BME280;16252;49.816;7.964;2023-06-14T01:47:18;99637.75;;;19.48;36.26
29215;BME280;16252;49.816;7.964;2023-06-14T01:49:46;99642.88;;;19.43;36.74
29215;BME280;16252;49.816;7.964;2023-06-14T01:52:11;99657.81;;;19.39;36.38
29215;BME280;16252;49.816;7.964;2023-06-14T01:54:37;99639.00;;;19.23;36.35
29215;BME280;16252;49.816;7.964;2023-06-14T01:57:07;99664.66;;;19.35;36.61
29215;BME280;16252;49.816;7.964;2023-06-14T01:59:33;99659.66;;;19.24;36.61
29215;BME280;16252;49.816;7.964;2023-06-14T02:02:01;99664.75;;;19.27;36.72
29215;BME280;16252;49.816;7.964;2023-06-14T02:04:26;99656.00;;;19.17;36.90
29215;BME280;16252;49.816;7.964;2023-06-14T02:06:51;99657.38;;;19.13;36.59
29215;BME280;16252;49.816;7.964;2023-06-14T02:09:17;99641.03;;;18.98;36.89
29215;BME280;16252;49.816;7.964;2023-06-14T02:11:42;99641.34;;;19.03;36.71
29215;BME280;16252;49.816;7.964;2023-06-14T02:14:08;99646.09;;;19.01;37.06
29215;BME280;16252;49.816;7.964;2023-06-14T02:16:36;99657.13;;;18.99;37.24
29215;BME280;16252;49.816;7.964;2023-06-14T02:19:01;99666.13;;;19.00;37.00
29215;BME280;16252;49.816;7.964;2023-06-14T02:21:26;99648.72;;;18.86;37.15
29215;BME280;16252;49.816;7.964;2023-06-14T02:23:51;99654.34;;;18.84;37.38
29215;BME280;16252;49.816;7.964;2023-06-14T02:26:17;99672.28;;;18.86;37.38
29215;BME280;16252;49.816;7.964;2023-06-14T02:28:42;99672.28;;;18.86;37.22
29215;BME280;16252;49.816;7.964;2023-06-14T02:31:07;99661.50;;;18.77;37.38
29215;BME280;16252;49.816;7.964;2023-06-14T02:33:33;99663.03;;;18.72;37.30
29215;BME280;16252;49.816;7.964;2023-06-14T02:35:58;99647.84;;;18.62;37.64
29215;BME280;16252;49.816;7.964;2023-06-14T02:38:23;99646.69;;;18.57;37.30
29215;BME280;16252;49.816;7.964;2023-06-14T02:40:48;99669.34;;;18.64;37.69
29215;BME280;16252;49.816;7.964;2023-06-14T02:43:14;99665.81;;;18.55;37.70
29215;BME280;16252;49.816;7.964;2023-06-14T02:45:40;99663.00;;;18.49;37.53
29215;BME280;16252;49.816;7.964;2023-06-14T02:48:05;99655.03;;;18.47;37.79
29215;BME280;16252;49.816;7.964;2023-06-14T02:50:30;99658.13;;;18.36;37.68
29215;BME280;16252;49.816;7.964;2023-06-14T02:52:56;99664.56;;;18.35;37.95
29215;BME280;16252;49.816;7.964;2023-06-14T02:55:22;99666.78;;;18.31;37.92
29215;BME280;16252;49.816;7.964;2023-06-14T02:57:47;99654.28;;;18.22;37.98
29215;BME280;16252;49.816;7.964;2023-06-14T03:00:13;99663.75;;;18.26;38.20
29215;BME280;16252;49.816;7.964;2023-06-14T03:02:39;99660.88;;;18.19;38.28
29215;BME280;16252;49.816;7.964;2023-06-14T03:05:04;99670.53;;;18.22;38.28
29215;BME280;16252;49.816;7.964;2023-06-14T03:07:31;99676.13;;;18.21;38.09
29215;BME280;16252;49.816;7.964;2023-06-14T03:09:57;99676.78;;;18.23;38.35
29215;BME280;16252;49.816;7.964;2023-06-14T03:12:23;99673.75;;;18.17;38.33
29215;BME280;16252;49.816;7.964;2023-06-14T03:14:49;99667.34;;;18.10;38.31
29215;BME280;16252;49.816;7.964;2023-06-14T03:17:16;99678.69;;;18.14;38.39
29215;BME280;16252;49.816;7.964;2023-06-14T03:19:42;99688.84;;;18.12;38.50
29215;BME280;16252;49.816;7.964;2023-06-14T03:22:08;99672.44;;;18.05;38.29
29215;BME280;16252;49.816;7.964;2023-06-14T03:24:33;99692.38;;;18.12;38.07
29215;BME280;16252;49.816;7.964;2023-06-14T03:27:01;99687.16;;;18.03;38.46
29215;BME280;16252;49.816;7.964;2023-06-14T03:29:27;99671.97;;;17.93;38.56
29215;BME280;16252;49.816;7.964;2023-06-14T03:32:00;99684.28;;;18.04;38.80
29215;BME280;16252;49.816;7.964;2023-06-14T03:34:26;99698.84;;;18.03;38.79
29215;BME280;16252;49.816;7.964;2023-06-14T03:36:51;99696.34;;;17.93;38.50
29215;BME280;16252;49.816;7.964;2023-06-14T03:39:17;99685.34;;;17.87;38.70
29215;BME280;16252;49.816;7.964;2023-06-14T03:41:42;99696.84;;;17.89;38.79
29215;BME280;16252;49.816;7.964;2023-06-14T03:44:07;99689.06;;;17.86;38.82
29215;BME280;16252;49.816;7.964;2023-06-14T03:46:33;99689.75;;;17.80;39.08
29215;BME280;16252;49.816;7.964;2023-06-14T03:48:58;99703.59;;;17.76;39.09
29215;BME280;16252;49.816;7.964;2023-06-14T03:51:23;99694.13;;;17.72;39.36
29215;BME280;16252;49.816;7.964;2023-06-14T03:53:50;99707.47;;;17.74;39.27
29215;BME280;16252;49.816;7.964;2023-06-14T03:56:15;99708.50;;;17.73;39.23
29215;BME280;16252;49.816;7.964;2023-06-14T03:58:41;99707.47;;;17.74;39.33
29215;BME280;16252;49.816;7.964;2023-06-14T04:01:06;99703.75;;;17.67;39.40
29215;BME280;16252;49.816;7.964;2023-06-14T04:03:32;99715.25;;;17.69;39.42
29215;BME280;16252;49.816;7.964;2023-06-14T04:05:58;99736.91;;;17.77;39.58
29215;BME280;16252;49.816;7.964;2023-06-14T04:08:24;99725.94;;;17.70;39.68
29215;BME280;16252;49.816;7.964;2023-06-14T04:10:50;99716.97;;;17.70;39.68
29215;BME280;16252;49.816;7.964;2023-06-14T04:13:15;99712.72;;;17.59;39.63
29215;BME280;16252;49.816;7.964;2023-06-14T04:15:40;99733.00;;;17.71;39.76
29215;BME280;16252;49.816;7.964;2023-06-14T04:18:12;99731.16;;;17.72;39.74
29215;BME280;16252;49.816;7.964;2023-06-14T04:20:37;99721.19;;;17.72;39.94
29215;BME280;16252;49.816;7.964;2023-06-14T04:23:17;99743.34;;;17.92;39.93
29215;BME280;16252;49.816;7.964;2023-06-14T04:25:46;99716.28;;;17.68;39.86
29215;BME280;16252;49.816;7.964;2023-06-14T04:28:12;99726.06;;;17.77;40.27
29215;BME280;16252;49.816;7.964;2023-06-14T04:30:39;99740.81;;;17.91;40.25
29215;BME280;16252;49.816;7.964;2023-06-14T04:33:05;99741.16;;;17.96;40.12
29215;BME280;16252;49.816;7.964;2023-06-14T04:35:31;99734.38;;;17.92;40.14
29215;BME280;16252;49.816;7.964;2023-06-14T04:37:58;99753.31;;;18.00;40.45
29215;BME280;16252;49.816;7.964;2023-06-14T04:40:24;99738.06;;;18.07;40.36
29215;BME280;16252;49.816;7.964;2023-06-14T04:42:49;99735.03;;;18.10;40.62
29215;BME280;16252;49.816;7.964;2023-06-14T04:45:16;99740.94;;;18.14;40.50
29215;BME280;16252;49.816;7.964;2023-06-14T04:47:42;99736.03;;;18.17;40.78
29215;BME280;16252;49.816;7.964;2023-06-14T04:50:07;99750.06;;;18.29;40.45
29215;BME280;16252;49.816;7.964;2023-06-14T04:52:33;99744.28;;;18.32;40.77
29215;BME280;16252;49.816;7.964;2023-06-14T04:55:00;99740.75;;;18.32;40.78
29215;BME280;16252;49.816;7.964;2023-06-14T04:57:27;99739.19;;;18.37;41.12
29215;BME280;16252;49.816;7.964;2023-06-14T04:59:52;99753.03;;;18.51;40.94
29215;BME280;16252;49.816;7.964;2023-06-14T05:02:21;99750.00;;;18.54;41.44
29215;BME280;16252;49.816;7.964;2023-06-14T05:04:47;99765.19;;;18.63;41.38
29215;BME280;16252;49.816;7.964;2023-06-14T05:07:12;99752.16;;;18.67;40.97
29215;BME280;16252;49.816;7.964;2023-06-14T05:09:39;99752.47;;;18.72;40.99
29215;BME280;16252;49.816;7.964;2023-06-14T05:12:05;99768.00;;;18.86;41.67
29215;BME280;16252;49.816;7.964;2023-06-14T05:14:33;99765.28;;;18.86;41.02
29215;BME280;16252;49.816;7.964;2023-06-14T05:16:58;99765.22;;;19.02;41.76
29215;BME280;16252;49.816;7.964;2023-06-14T05:19:23;99739.00;;;18.95;41.82
29215;BME280;16252;49.816;7.964;2023-06-14T05:21:48;99761.50;;;19.26;41.46
29215;BME280;16252;49.816;7.964;2023-06-14T05:24:14;99775.66;;;19.45;41.10
29215;BME280;16252;49.816;7.964;2023-06-14T05:26:40;99777.47;;;19.53;41.08
29215;BME280;16252;49.816;7.964;2023-06-14T05:29:05;99779.75;;;19.64;41.77
29215;BME280;16252;49.816;7.964;2023-06-14T05:31:31;99784.13;;;19.73;41.49
29215;BME280;16252;49.816;7.964;2023-06-14T05:33:56;99764.91;;;19.75;41.53
29215;BME280;16252;49.816;7.964;2023-06-14T05:36:22;99784.53;;;19.85;41.40
29215;BME280;16252;49.816;7.964;2023-06-14T05:38:47;99782.31;;;19.88;41.64
29215;BME280;16252;49.816;7.964;2023-06-14T05:41:13;99780.25;;;19.90;42.18
29215;BME280;16252;49.816;7.964;2023-06-14T05:43:38;99790.00;;;20.00;41.39
29215;BME280;16252;49.816;7.964;2023-06-14T05:46:04;99789.44;;;20.04;40.95
29215;BME280;16252;49.816;7.964;2023-06-14T05:48:30;99792.66;;;20.08;40.49
29215;BME280;16252;49.816;7.964;2023-06-14T05:50:55;99795.47;;;20.14;40.96
29215;BME280;16252;49.816;7.964;2023-06-14T05:53:21;99779.16;;;20.14;40.96
29215;BME280;16252;49.816;7.964;2023-06-14T05:55:46;99797.84;;;20.32;41.02
29215;BME280;16252;49.816;7.964;2023-06-14T05:58:11;99791.69;;;20.39;40.43
29215;BME280;16252;49.816;7.964;2023-06-14T06:00:38;99796.72;;;20.42;40.49
29215;BME280;16252;49.816;7.964;2023-06-14T06:03:04;99763.94;;;20.28;39.93
29215;BME280;16252;49.816;7.964;2023-06-14T06:05:30;99788.66;;;20.48;39.51
29215;BME280;16252;49.816;7.964;2023-06-14T06:07:55;99787.59;;;20.58;39.15
29215;BME280;16252;49.816;7.964;2023-06-14T06:10:21;99787.78;;;20.56;38.84
29215;BME280;16252;49.816;7.964;2023-06-14T06:12:46;99794.81;;;20.65;38.25
29215;BME280;16252;49.816;7.964;2023-06-14T06:15:12;99814.41;;;20.75;38.72
29215;BME280;16252;49.816;7.964;2023-06-14T06:17:38;99804.56;;;20.74;38.66
29215;BME280;16252;49.816;7.964;2023-06-14T06:20:05;99780.84;;;20.68;38.54
29215;BME280;16252;49.816;7.964;2023-06-14T06:22:33;99811.41;;;20.85;38.27
29215;BME280;16252;49.816;7.964;2023-06-14T06:24:58;99787.88;;;20.77;38.11
29215;BME280;16252;49.816;7.964;2023-06-14T06:27:23;99795.91;;;20.86;38.22
29215;BME280;16252;49.816;7.964;2023-06-14T06:29:49;99799.97;;;20.90;38.63
29215;BME280;16252;49.816;7.964;2023-06-14T06:32:15;99784.31;;;20.92;38.70
29215;BME280;16252;49.816;7.964;2023-06-14T06:34:40;99809.22;;;21.10;37.69
29215;BME280;16252;49.816;7.964;2023-06-14T06:37:06;99812.75;;;21.26;37.72
29215;BME280;16252;49.816;7.964;2023-06-14T06:39:31;99817.22;;;21.33;37.35
29215;BME280;16252;49.816;7.964;2023-06-14T06:41:56;99818.19;;;21.40;36.96
29215;BME280;16252;49.816;7.964;2023-06-14T06:44:22;99809.72;;;21.50;36.88
29215;BME280;16252;49.816;7.964;2023-06-14T06:46:50;99818.69;;;21.66;36.72
29215;BME280;16252;49.816;7.964;2023-06-14T06:49:15;99808.69;;;21.73;36.52
29215;BME280;16252;49.816;7.964;2023-06-14T06:52:02;99832.03;;;22.03;36.43
29215;BME280;16252;49.816;7.964;2023-06-14T06:54:27;99814.38;;;21.99;36.16
29215;BME280;16252;49.816;7.964;2023-06-14T06:56:53;99826.03;;;22.15;36.12
29215;BME280;16252;49.816;7.964;2023-06-14T06:59:18;99815.78;;;22.17;35.85
29215;BME280;16252;49.816;7.964;2023-06-14T07:01:43;99842.06;;;22.46;35.83
29215;BME280;16252;49.816;7.964;2023-06-14T07:04:08;99839.22;;;22.61;35.83
29215;BME280;16252;49.816;7.964;2023-06-14T07:06:34;99836.66;;;22.87;36.38
29215;BME280;16252;49.816;7.964;2023-06-14T07:08:59;99831.84;;;23.31;36.22
29215;BME280;16252;49.816;7.964;2023-06-14T07:11:26;99844.88;;;23.97;35.61
29215;BME280;16252;49.816;7.964;2023-06-14T07:13:52;99856.47;;;24.65;35.16
29215;BME280;16252;49.816;7.964;2023-06-14T07:16:17;99854.19;;;25.34;34.18
29215;BME280;16252;49.816;7.964;2023-06-14T07:18:42;99843.38;;;25.84;33.59
29215;BME280;16252;49.816;7.964;2023-06-14T07:21:08;99852.16;;;26.31;33.47
29215;BME280;16252;49.816;7.964;2023-06-14T07:23:34;99850.53;;;26.74;33.29
29215;BME280;16252;49.816;7.964;2023-06-14T07:25:59;99856.34;;;27.39;32.91
29215;BME280;16252;49.816;7.964;2023-06-14T07:28:24;99857.94;;;28.07;32.14
29215;BME280;16252;49.816;7.964;2023-06-14T07:30:50;99857.22;;;28.89;31.70
29215;BME280;16252;49.816;7.964;2023-06-14T07:33:15;99871.66;;;29.72;30.70
29215;BME280;16252;49.816;7.964;2023-06-14T07:35:40;99863.44;;;30.52;30.25
29215;BME280;16252;49.816;7.964;2023-06-14T07:38:06;99870.84;;;31.24;29.50
29215;BME280;16252;49.816;7.964;2023-06-14T07:40:31;99865.94;;;31.97;28.20
29215;BME280;16252;49.816;7.964;2023-06-14T07:42:56;99865.75;;;32.68;27.80
29215;BME280;16252;49.816;7.964;2023-06-14T07:45:22;99865.28;;;33.29;27.51
29215;BME280;16252;49.816;7.964;2023-06-14T07:47:47;99860.78;;;33.86;26.44
29215;BME280;16252;49.816;7.964;2023-06-14T07:50:12;99868.63;;;34.45;25.95
29215;BME280;16252;49.816;7.964;2023-06-14T07:52:39;99874.09;;;35.02;25.05
29215;BME280;16252;49.816;7.964;2023-06-14T07:55:05;99872.28;;;35.52;24.69
29215;BME280;16252;49.816;7.964;2023-06-14T07:57:30;99858.19;;;35.88;24.30
29215;BME280;16252;49.816;7.964;2023-06-14T07:59:56;99852.88;;;36.31;23.59
29215;BME280;16252;49.816;7.964;2023-06-14T08:02:21;99862.78;;;36.76;23.00
29215;BME280;16252;49.816;7.964;2023-06-14T08:04:46;99842.97;;;37.02;22.87
29215;BME280;16252;49.816;7.964;2023-06-14T08:07:13;99876.13;;;37.57;21.76
29215;BME280;16252;49.816;7.964;2023-06-14T08:09:39;99874.25;;;37.90;21.89
29215;BME280;16252;49.816;7.964;2023-06-14T08:12:07;99859.41;;;38.13;21.36
29215;BME280;16252;49.816;7.964;2023-06-14T08:14:34;99868.66;;;38.47;20.81
29215;BME280;16252;49.816;7.964;2023-06-14T08:17:00;99863.63;;;38.76;20.39
29215;BME280;16252;49.816;7.964;2023-06-14T08:19:25;99863.69;;;39.04;20.53
29215;BME280;16252;49.816;7.964;2023-06-14T08:21:50;99863.78;;;39.27;19.65
29215;BME280;16252;49.816;7.964;2023-06-14T08:24:16;99859.03;;;39.41;19.13
29215;BME280;16252;49.816;7.964;2023-06-14T08:26:42;99866.47;;;39.59;18.98
29215;BME280;16252;49.816;7.964;2023-06-14T08:29:07;99865.59;;;39.73;19.00
29215;BME280;16252;49.816;7.964;2023-06-14T08:31:33;99873.53;;;39.93;18.95
29215;BME280;16252;49.816;7.964;2023-06-14T08:33:58;99872.88;;;40.10;18.36
29215;BME280;16252;49.816;7.964;2023-06-14T08:36:24;99839.47;;;40.14;18.58
29215;BME280;16252;49.816;7.964;2023-06-14T08:38:49;99874.50;;;40.47;17.85
29215;BME280;16252;49.816;7.964;2023-06-14T08:41:20;99876.00;;;40.76;18.13
29215;BME280;16252;49.816;7.964;2023-06-14T08:43:47;99879.41;;;40.96;18.10
29215;BME280;16252;49.816;7.964;2023-06-14T08:46:12;99882.16;;;41.18;17.47
29215;BME280;16252;49.816;7.964;2023-06-14T08:48:41;99869.00;;;41.45;17.00
29215;BME280;16252;49.816;7.964;2023-06-14T08:51:09;99882.63;;;41.69;16.96
29215;BME280;16252;49.816;7.964;2023-06-14T08:53:36;99888.66;;;41.93;16.42
29215;BME280;16252;49.816;7.964;2023-06-14T08:56:07;99890.13;;;42.17;16.45
29215;BME280;16252;49.816;7.964;2023-06-14T08:58:47;99883.16;;;42.32;15.86
29215;BME280;16252;49.816;7.964;2023-06-14T09:01:13;99873.06;;;42.48;15.76
29215;BME280;16252;49.816;7.964;2023-06-14T09:03:40;99871.84;;;42.67;15.68
29215;BME280;16252;49.816;7.964;2023-06-14T09:06:07;99877.94;;;42.86;15.69
29215;BME280;16252;49.816;7.964;2023-06-14T09:08:34;99876.44;;;42.97;14.96
29215;BME280;16252;49.816;7.964;2023-06-14T09:11:01;99892.22;;;43.28;14.96
29215;BME280;16252;49.816;7.964;2023-06-14T09:13:27;99894.25;;;43.48;14.87
29215;BME280;16252;49.816;7.964;2023-06-14T09:15:52;99882.03;;;43.65;14.29
29215;BME280;16252;49.816;7.964;2023-06-14T09:18:18;99884.59;;;43.79;14.33
29215;BME280;16252;49.816;7.964;2023-06-14T09:20:45;99875.63;;;43.86;14.23
29215;BME280;16252;49.816;7.964;2023-06-14T09:23:12;99871.53;;;43.96;14.18
29215;BME280;16252;49.816;7.964;2023-06-14T09:25:42;99872.81;;;44.07;14.34
29215;BME280;16252;49.816;7.964;2023-06-14T09:28:09;99886.38;;;44.26;14.20
29215;BME280;16252;49.816;7.964;2023-06-14T09:30:36;99894.00;;;44.46;13.64
29215;BME280;16252;49.816;7.964;2023-06-14T09:33:01;99887.03;;;44.65;13.47
29215;BME280;16252;49.816;7.964;2023-06-14T09:35:27;99892.59;;;44.86;13.41
29215;BME280;16252;49.816;7.964;2023-06-14T09:37:55;99902.88;;;45.03;13.26
29215;BME280;16252;49.816;7.964;2023-06-14T09:40:20;99905.56;;;45.11;13.06
29215;BME280;16252;49.816;7.964;2023-06-14T09:42:47;99893.47;;;45.11;13.21
29215;BME280;16252;49.816;7.964;2023-06-14T09:45:13;99887.56;;;45.16;13.27
29215;BME280;16252;49.816;7.964;2023-06-14T09:47:39;99895.13;;;45.24;13.07
29215;BME280;16252;49.816;7.964;2023-06-14T09:50:05;99893.84;;;45.34;13.13
29215;BME280;16252;49.816;7.964;2023-06-14T09:52:31;99905.22;;;45.50;12.86
29215;BME280;16252;49.816;7.964;2023-06-14T09:54:59;99911.59;;;45.71;13.10
29215;BME280;16252;49.816;7.964;2023-06-14T09:57:25;99901.09;;;45.84;12.73
29215;BME280;16252;49.816;7.964;2023-06-14T09:59:53;99901.75;;;46.05;12.79
29215;BME280;16252;49.816;7.964;2023-06-14T10:02:25;99914.59;;;46.31;12.68
29215;BME280;16252;49.816;7.964;2023-06-14T10:05:05;99909.47;;;46.49;11.96
29215;BME280;16252;49.816;7.964;2023-06-14T10:07:35;99910.50;;;46.57;12.24
29215;BME280;16252;49.816;7.964;2023-06-14T10:10:04;99900.56;;;46.63;12.34
29215;BME280;16252;49.816;7.964;2023-06-14T10:12:31;99901.13;;;46.68;12.09
29215;BME280;16252;49.816;7.964;2023-06-14T10:14:56;99857.47;;;46.54;11.97
29215;BME280;16252;49.816;7.964;2023-06-14T10:17:46;99897.06;;;46.98;12.73
29215;BME280;16252;49.816;7.964;2023-06-14T10:20:37;99894.16;;;47.10;12.70
29215;BME280;16252;49.816;7.964;2023-06-14T10:23:17;99876.72;;;47.08;12.19
29215;BME280;16252;49.816;7.964;2023-06-14T10:25:44;99888.84;;;47.24;11.81
29215;BME280;16252;49.816;7.964;2023-06-14T10:28:20;99901.16;;;47.48;12.15
29215;BME280;16252;49.816;7.964;2023-06-14T10:31:10;99911.94;;;47.58;12.33
29215;BME280;16252;49.816;7.964;2023-06-14T10:34:00;99906.06;;;47.67;12.26
29215;BME280;16252;49.816;7.964;2023-06-14T10:36:27;99906.97;;;47.71;11.50
29215;BME280;16252;49.816;7.964;2023-06-14T10:39:13;99902.66;;;47.77;12.65
29215;BME280;16252;49.816;7.964;2023-06-14T10:41:40;99909.06;;;47.74;11.49
29215;BME280;16252;49.816;7.964;2023-06-14T10:46:37;99894.94;;;47.58;11.30
29215;BME280;16252;49.816;7.964;2023-06-14T10:49:02;99895.66;;;47.55;11.23
29215;BME280;16252;49.816;7.964;2023-06-14T10:51:29;99911.03;;;47.54;11.50
29215;BME280;16252;49.816;7.964;2023-06-14T10:53:57;99887.22;;;47.23;11.38
29215;BME280;16252;49.816;7.964;2023-06-14T10:56:26;99902.47;;;47.03;11.44
29215;BME280;16252;49.816;7.964;2023-06-14T10:58:52;99901.06;;;46.97;12.42
29215;BME280;16252;49.816;7.964;2023-06-14T11:01:27;99890.75;;;46.16;11.92
29215;BME280;16252;49.816;7.964;2023-06-14T11:03:57;99889.00;;;45.34;11.88
29215;BME280;16252;49.816;7.964;2023-06-14T11:06:46;99891.16;;;44.67;12.23
29215;BME280;16252;49.816;7.964;2023-06-14T11:12:05;99903.84;;;43.09;12.57
29215;BME280;16252;49.816;7.964;2023-06-14T11:14:32;99881.00;;;42.29;12.97
29215;BME280;16252;49.816;7.964;2023-06-14T11:16:57;99870.09;;;41.66;13.23
29215;BME280;16252;49.816;7.964;2023-06-14T11:19:22;99893.25;;;41.23;13.68
29215;BME280;16252;49.816;7.964;2023-06-14T11:21:48;99873.97;;;40.68;13.77
29215;BME280;16252;49.816;7.964;2023-06-14T11:24:14;99855.75;;;40.12;13.86
29215;BME280;16252;49.816;7.964;2023-06-14T11:26:40;99880.63;;;39.77;14.26
29215;BME280;16252;49.816;7.964;2023-06-14T11:29:05;99873.31;;;39.26;14.66
29215;BME280;16252;49.816;7.964;2023-06-14T11:31:31;99877.50;;;38.81;14.74
29215;BME280;16252;49.816;7.964;2023-06-14T11:33:57;99877.19;;;38.36;15.08
29215;BME280;16252;49.816;7.964;2023-06-14T11:36:26;99873.59;;;37.98;15.22
29215;BME280;16252;49.816;7.964;2023-06-14T11:39:01;99887.47;;;37.84;15.20
29215;BME280;16252;49.816;7.964;2023-06-14T11:41:32;99882.03;;;37.50;15.47
29215;BME280;16252;49.816;7.964;2023-06-14T11:44:00;99868.00;;;37.12;15.33
29215;BME280;16252;49.816;7.964;2023-06-14T11:46:25;99856.03;;;36.82;15.70
29215;BME280;16252;49.816;7.964;2023-06-14T11:48:51;99838.47;;;36.53;15.94
29215;BME280;16252;49.816;7.964;2023-06-14T11:51:16;99874.97;;;36.51;16.15
29215;BME280;16252;49.816;7.964;2023-06-14T11:53:43;99869.59;;;36.31;16.31
29215;BME280;16252;49.816;7.964;2023-06-14T11:56:09;99868.59;;;36.16;16.34
29215;BME280;16252;49.816;7.964;2023-06-14T11:58:34;99858.69;;;35.95;16.41
29215;BME280;16252;49.816;7.964;2023-06-14T12:00:59;99865.13;;;35.90;16.31
29215;BME280;16252;49.816;7.964;2023-06-14T12:03:26;99864.09;;;35.81;16.88
29215;BME280;16252;49.816;7.964;2023-06-14T12:06:03;99868.00;;;35.75;16.66
29215;BME280;16252;49.816;7.964;2023-06-14T12:08:33;99858.91;;;35.59;16.73
29215;BME280;16252;49.816;7.964;2023-06-14T12:11:04;99859.56;;;35.35;16.89
29215;BME280;16252;49.816;7.964;2023-06-14T12:13:30;99858.25;;;35.17;17.13
29215;BME280;16252;49.816;7.964;2023-06-14T12:18:36;99852.50;;;34.78;16.76
29215;BME280;16252;49.816;7.964;2023-06-14T12:21:05;99866.66;;;34.71;17.30
29215;BME280;16252;49.816;7.964;2023-06-14T12:23:48;99864.19;;;34.70;17.09
29215;BME280;16252;49.816;7.964;2023-06-14T12:26:18;99864.44;;;34.53;17.46
29215;BME280;16252;49.816;7.964;2023-06-14T12:28:45;99868.06;;;34.38;17.55
29215;BME280;16252;49.816;7.964;2023-06-14T12:31:12;99861.41;;;34.19;17.50
29215;BME280;16252;49.816;7.964;2023-06-14T12:33:37;99882.75;;;34.18;17.76
29215;BME280;16252;49.816;7.964;2023-06-14T12:36:04;99875.53;;;34.07;17.19
29215;BME280;16252;49.816;7.964;2023-06-14T12:38:30;99869.38;;;33.95;17.59
29215;BME280;16252;49.816;7.964;2023-06-14T12:40:56;99857.69;;;33.82;17.71
29215;BME280;16252;49.816;7.964;2023-06-14T12:43:22;99856.03;;;33.71;17.63
29215;BME280;16252;49.816;7.964;2023-06-14T12:45:47;99836.81;;;33.54;17.33
29215;BME280;16252;49.816;7.964;2023-06-14T12:48:13;99845.94;;;33.50;17.20
29215;BME280;16252;49.816;7.964;2023-06-14T12:50:38;99855.09;;;33.45;17.28
29215;BME280;16252;49.816;7.964;2023-06-14T12:53:04;99860.34;;;33.41;17.67
29215;BME280;16252;49.816;7.964;2023-06-14T12:55:29;99882.84;;;33.50;17.75
29215;BME280;16252;49.816;7.964;2023-06-14T12:57:55;99869.78;;;33.40;17.73
29215;BME280;16252;49.816;7.964;2023-06-14T13:00:20;99833.59;;;33.10;18.10
29215;BME280;16252;49.816;7.964;2023-06-14T13:02:46;99844.94;;;33.08;17.93
29215;BME280;16252;49.816;7.964;2023-06-14T13:05:11;99877.72;;;33.21;17.73
29215;BME280;16252;49.816;7.964;2023-06-14T13:07:37;99881.28;;;33.17;18.24
29215;BME280;16252;49.816;7.964;2023-06-14T13:10:03;99874.06;;;33.11;17.76
29215;BME280;16252;49.816;7.964;2023-06-14T13:12:28;99840.31;;;32.81;18.27